Peoria, Oklahoma
Current Conditions -  °F | °C
As of 2:53 AM on Monday 24 Nov 2014 (Local Time) from KJLN Reporting Station
Clear Clear  
Wind Chill: 33°   Ceiling: Unl
Heat Index: 41°   Visibility: 10mi
Dew Point: 32°   Wind: 15mph
Humidity: 70%   Direction: 300°WNW
Pressure: 29.66"   Gusts: NA
Location:  36.9122°N, 94.6735°W
Report Text: KJLN 240853Z AUTO 30013KT 10SM CLR 05/00 A2966 RMK AO2 SLP041 60000 T00500000 51025
Loading
Personal Weather Stations






























Interactive Weather Map New forecast layout! Learn more

10-Day Weather Forecast

Advertisements
Track Severe Weather on mobile